RJBM(METAR)
04/28 17:00
METAR RJBM 280800Z 07007KT 9999 FEW030 19/04 Q1005 RMK 1CU030 A2969=
戻る
トップページへ戻る
IMOC Co,.Ltd.